Time;durP1;ratioP1;P1;durP2;ratioP2;P2;SDS_P1;SDS_P2;PMS_P1;PMS_P2;Temp;Humidity;BMP_temperature;BMP_pressure;BME280_temperature;BME280_humidity;BME280_pressure;Samples;Min_cycle;Max_cycle;Signal;HPM_P1;HPM_P2
2022/01/23 00:04:33;;;;;;;6.82;3.17;;;;;;;4.43;58.36;99031.84;9970739;29;20058;-78
2022/01/23 00:09:54;;;;;;;6.90;3.30;;;;;;;4.37;58.46;99025.66;9969656;29;20058;-78
2022/01/23 00:20:55;;;;;;;4.65;2.88;;;;;;;4.30;59.45;99019.44;9971757;29;20137;-78
2022/01/23 00:31:56;;;;;;;4.43;2.88;;;;;;;4.21;60.29;99014.25;9971458;29;20062;-78
2022/01/23 00:37:17;;;;;;;5.75;3.30;;;;;;;4.17;60.31;99013.81;9957054;29;20046;-78
2022/01/23 00:42:37;;;;;;;6.00;3.17;;;;;;;4.12;60.81;99016.66;9963201;29;20051;-78
2022/01/23 00:48:08;;;;;;;5.60;2.97;;;;;;;4.13;61.32;99013.34;9976161;29;20489;-78
2022/01/23 00:53:29;;;;;;;6.38;3.00;;;;;;;4.13;61.43;99010.59;9975718;29;20537;-78
2022/01/23 00:58:50;;;;;;;5.55;2.70;;;;;;;4.16;61.46;99017.84;9988211;29;20472;-78
2022/01/23 01:04:11;;;;;;;6.03;2.90;;;;;;;4.15;61.79;99016.38;9988000;29;20073;-78
2022/01/23 01:09:32;;;;;;;5.45;3.28;;;;;;;4.09;61.67;99003.88;9987851;29;20125;-78
2022/01/23 01:15:11;;;;;;;7.15;3.90;;;;;;;4.06;61.64;99002.91;9987726;29;20467;-78
2022/01/23 01:32:01;;;;;;;6.63;3.63;;;;;;;4.01;63.19;99009.97;9989455;29;20063;-79
2022/01/23 01:37:24;;;;;;;5.18;3.88;;;;;;;4.03;63.06;99001.16;9975378;29;20083;-78
2022/01/23 01:42:45;;;;;;;5.57;3.55;;;;;;;3.94;63.11;98996.00;9986811;29;20054;-79
2022/01/23 01:48:08;;;;;;;5.18;3.67;;;;;;;3.86;64.04;98978.50;9975127;29;20095;-78
2022/01/23 01:53:29;;;;;;;6.18;3.55;;;;;;;3.81;63.92;98982.09;9973190;29;20479;-78
2022/01/23 01:59:11;;;;;;;5.22;3.30;;;;;;;3.82;64.09;98994.63;9973482;29;20054;-78
2022/01/23 02:10:32;;;;;;;6.03;3.97;;;;;;;3.84;64.35;99009.41;9975248;29;20057;-78
2022/01/23 02:55:50;;;;;;;6.28;3.55;;;;;;;4.30;65.20;98988.28;9986503;29;20451;-78
2022/01/23 03:01:18;;;;;;;5.05;3.10;;;;;;;4.35;65.31;98989.50;9971312;29;20043;-78
2022/01/23 03:29:27;;;;;;;3.80;2.13;;;;;;;4.55;65.42;99005.56;9972671;29;20102;-78
2022/01/23 03:34:52;;;;;;;5.50;2.35;;;;;;;4.62;65.87;99004.19;9971034;29;20050;-78
2022/01/23 03:40:14;;;;;;;5.85;3.20;;;;;;;4.66;66.38;99008.16;9970334;29;20078;-78
2022/01/23 03:51:05;;;;;;;4.05;2.72;;;;;;;4.59;65.54;99014.28;9982818;29;20397;-78
2022/01/23 03:56:33;;;;;;;4.13;2.47;;;;;;;4.58;66.12;99018.31;9970143;29;20055;-78
2022/01/23 04:01:54;;;;;;;4.28;2.92;;;;;;;4.56;65.71;99026.41;9956911;29;20432;-78
2022/01/23 04:07:19;;;;;;;4.97;2.90;;;;;;;4.57;66.18;99017.59;9970042;29;20492;-78
2022/01/23 04:35:42;;;;;;;2.95;2.15;;;;;;;4.55;66.28;99038.75;9971490;29;20050;-78
2022/01/23 04:45:18;;;;;;;4.60;2.60;;;;;;;4.55;66.76;99042.25;9981952;29;20053;-78
2022/01/23 05:09:10;;;;;;;5.25;2.35;;;;;;;4.57;66.38;99072.16;9981287;29;20091;-78
2022/01/23 05:14:53;;;;;;;5.40;2.08;;;;;;;4.57;66.28;99078.41;9971569;29;20066;-79
2022/01/23 05:20:16;;;;;;;3.50;1.90;;;;;;;4.58;66.30;99087.47;9968804;29;20081;-79
2022/01/23 05:25:38;;;;;;;2.88;1.90;;;;;;;4.54;66.34;99100.84;9958387;29;20047;-79
2022/01/23 05:31:00;;;;;;;3.42;2.20;;;;;;;4.55;66.57;99105.13;9974765;29;20050;-78
2022/01/23 05:36:22;;;;;;;2.58;1.98;;;;;;;4.55;66.50;99108.63;9974114;29;20042;-78
2022/01/23 05:41:43;;;;;;;2.75;1.92;;;;;;;4.54;66.68;99111.91;9958934;29;20050;-78
2022/01/23 05:47:05;;;;;;;2.58;1.98;;;;;;;4.53;66.54;99115.94;9985156;29;20058;-78
2022/01/23 05:52:45;;;;;;;3.35;2.10;;;;;;;4.59;66.74;99127.69;9986092;29;20051;-78
2022/01/23 05:58:20;;;;;;;2.45;1.45;;;;;;;4.63;66.60;99139.19;9961023;29;20053;-78
2022/01/23 06:03:43;;;;;;;2.05;1.50;;;;;;;4.65;66.74;99141.44;9972554;29;20054;-78
2022/01/23 06:09:07;;;;;;;2.88;1.77;;;;;;;4.66;66.63;99146.47;9948904;29;20054;-79
2022/01/23 06:14:28;;;;;;;3.75;1.85;;;;;;;4.64;66.29;99149.00;9947901;29;20046;-78
2022/01/23 06:19:49;;;;;;;3.75;1.75;;;;;;;4.60;66.58;99143.75;9947788;29;20046;-78
2022/01/23 06:25:48;;;;;;;2.97;1.58;;;;;;;4.60;66.22;99137.47;9969367;29;20054;-82
2022/01/23 06:31:19;;;;;;;2.38;1.60;;;;;;;4.65;66.44;99146.97;10011882;29;20115;-83
2022/01/23 06:36:41;;;;;;;2.60;1.60;;;;;;;4.63;66.64;99149.50;10021306;29;20037;-83
2022/01/23 06:42:02;;;;;;;3.10;1.85;;;;;;;4.62;67.05;99153.53;10009592;29;20030;-82
2022/01/23 06:47:35;;;;;;;3.10;2.00;;;;;;;4.58;66.73;99142.78;10012670;29;20038;-83
2022/01/23 06:52:57;;;;;;;2.97;1.88;;;;;;;4.55;67.03;99141.06;10009326;29;20035;-83
2022/01/23 06:58:19;;;;;;;3.40;2.25;;;;;;;4.54;66.83;99153.41;10006914;29;20061;-83
2022/01/23 07:03:40;;;;;;;7.80;4.45;;;;;;;4.52;67.10;99156.66;10020729;29;20042;-80
2022/01/23 07:09:26;;;;;;;9.00;4.68;;;;;;;4.52;66.91;99164.22;10011180;29;20115;-82
2022/01/23 07:15:16;;;;;;;4.40;2.55;;;;;;;4.53;67.10;99157.41;10006141;29;20046;-83
2022/01/23 07:20:47;;;;;;;3.58;2.28;;;;;;;4.53;66.95;99168.47;9997783;29;20037;-83
2022/01/23 07:26:15;;;;;;;4.70;2.38;;;;;;;4.56;66.85;99176.50;10008782;29;20114;-84
2022/01/23 07:36:59;;;;;;;4.40;2.83;;;;;;;4.76;66.39;99188.34;10007350;29;20060;-82
2022/01/23 07:42:34;;;;;;;2.72;1.90;;;;;;;4.86;66.03;99184.69;10008581;29;20046;-84
2022/01/23 07:47:55;;;;;;;4.95;2.78;;;;;;;4.96;66.30;99184.34;10472442;24;20073;-82
2022/01/23 07:53:29;;;;;;;4.45;3.22;;;;;;;5.01;66.10;99187.00;10034708;29;20056;-82
2022/01/23 07:59:05;;;;;;;5.25;2.60;;;;;;;5.03;66.09;99192.81;10031607;29;20053;-82
2022/01/23 08:04:45;;;;;;;5.80;2.80;;;;;;;4.96;66.27;99196.16;10007091;29;20058;-82
2022/01/23 08:10:12;;;;;;;6.10;2.92;;;;;;;5.03;66.38;99203.88;9991967;29;20046;-83
2022/01/23 08:15:35;;;;;;;4.28;2.67;;;;;;;5.16;66.14;99214.28;9975372;29;20493;-82
2022/01/23 08:20:58;;;;;;;5.47;2.80;;;;;;;5.27;65.94;99218.91;9990167;29;20091;-81
2022/01/23 08:26:22;;;;;;;5.07;2.60;;;;;;;5.38;65.96;99232.59;9997936;29;20107;-82
2022/01/23 08:31:45;;;;;;;4.57;2.97;;;;;;;5.45;65.95;99241.06;9994149;29;20058;-81
2022/01/23 08:37:07;;;;;;;4.75;2.40;;;;;;;5.50;66.04;99253.38;9996667;29;20046;-81
2022/01/23 08:42:29;;;;;;;5.05;3.33;;;;;;;5.62;66.06;99248.41;9982582;29;20061;-82
2022/01/23 08:47:51;;;;;;;5.28;3.15;;;;;;;5.65;65.79;99239.03;9967020;29;20126;-81
2022/01/23 08:53:13;;;;;;;7.03;3.60;;;;;;;5.66;65.65;99243.31;10000734;29;20054;-81
2022/01/23 08:58:34;;;;;;;5.15;3.08;;;;;;;5.62;66.00;99246.38;9996293;29;20035;-80
2022/01/23 09:03:56;;;;;;;5.63;3.35;;;;;;;5.66;65.66;99265.47;10052598;24;20051;-80
2022/01/23 09:09:19;;;;;;;5.10;2.47;;;;;;;6.01;65.72;99258.94;9956803;29;20047;-82
2022/01/23 09:14:41;;;;;;;3.50;2.38;;;;;;;6.30;65.14;99248.91;10069487;24;20065;-81
2022/01/23 09:20:04;;;;;;;4.10;2.72;;;;;;;6.86;64.85;99259.78;10065823;29;20042;-81
2022/01/23 09:25:26;;;;;;;3.88;2.83;;;;;;;7.04;64.66;99274.81;10076793;29;20074;-81
2022/01/23 09:30:51;;;;;;;3.45;2.28;;;;;;;7.38;63.95;99274.16;10091975;29;20050;-81
2022/01/23 09:36:14;;;;;;;4.00;2.03;;;;;;;7.47;63.35;99271.69;10067052;29;20112;-81
2022/01/23 09:41:35;;;;;;;4.53;2.70;;;;;;;7.68;63.40;99270.97;10078950;29;20065;-80
2022/01/23 09:46:56;;;;;;;4.10;2.70;;;;;;;8.21;62.14;99268.75;10066673;29;20046;-81
2022/01/23 09:52:18;;;;;;;3.53;2.05;;;;;;;8.27;61.73;99263.78;10066951;29;20053;-81
2022/01/23 09:57:45;;;;;;;4.18;2.65;;;;;;;8.12;61.63;99276.84;10081440;29;20030;-81
2022/01/23 10:03:07;;;;;;;4.90;2.38;;;;;;;12.00;60.70;99281.78;10076378;29;20054;-81
2022/01/23 10:08:29;;;;;;;2.85;1.63;;;;;;;12.24;55.20;99280.31;10080387;29;20046;-80
2022/01/23 10:13:50;;;;;;;2.38;1.70;;;;;;;11.22;55.46;99284.69;10067332;29;20053;-82
2022/01/23 10:19:12;;;;;;;3.58;2.42;;;;;;;10.00;55.99;99283.34;10042384;29;20101;-77
2022/01/23 10:24:33;;;;;;;3.53;2.10;;;;;;;9.21;58.08;99281.38;10036557;29;20132;-78
2022/01/23 10:29:54;;;;;;;4.80;2.88;;;;;;;8.50;57.98;99288.34;10011042;29;20050;-78
2022/01/23 10:35:15;;;;;;;4.78;2.85;;;;;;;8.11;59.28;99289.25;10025492;29;20049;-81
2022/01/23 10:40:46;;;;;;;4.32;2.58;;;;;;;7.67;59.66;99272.28;10037159;29;20057;-79
2022/01/23 10:51:51;;;;;;;5.07;2.90;;;;;;;7.28;60.34;99271.06;10092985;29;20105;-80
2022/01/23 10:57:13;;;;;;;4.07;3.10;;;;;;;7.81;60.42;99275.75;10062216;29;20049;-78
2022/01/23 11:02:33;;;;;;;7.45;3.08;;;;;;;8.25;59.36;99280.28;10052499;29;20088;-80
2022/01/23 11:07:54;;;;;;;5.13;3.33;;;;;;;9.06;59.11;99270.16;10058701;29;20074;-81
2022/01/23 11:18:56;;;;;;;7.13;3.45;;;;;;;11.12;55.64;99262.91;10233020;24;20061;-76
2022/01/23 11:24:17;;;;;;;5.38;3.72;;;;;;;11.28;54.75;99254.47;10034722;29;20049;-79
2022/01/23 11:29:52;;;;;;;6.47;3.35;;;;;;;11.03;54.77;99262.75;10039324;29;20101;-78
2022/01/23 11:35:14;;;;;;;5.82;3.20;;;;;;;10.59;54.82;99268.56;10060736;29;20042;-82
2022/01/23 11:57:44;;;;;;;5.15;3.10;;;;;;;8.33;56.50;99256.06;10038862;29;20124;-80
2022/01/23 12:03:19;;;;;;;4.03;2.45;;;;;;;8.37;56.64;99257.78;10054588;29;20102;-81
2022/01/23 12:08:40;;;;;;;3.97;2.63;;;;;;;8.42;56.85;99265.25;10069835;29;20049;-81
2022/01/23 12:19:58;;;;;;;2.38;1.45;;;;;;;8.18;56.10;99247.56;9983266;29;20043;-78
2022/01/23 12:25:21;;;;;;;1.65;0.60;;;;;;;8.01;55.67;99250.03;9969871;29;20481;-77
2022/01/23 12:30:43;;;;;;;0.90;0.40;;;;;;;7.96;55.81;99251.66;9944361;29;20111;-77
2022/01/23 12:36:07;;;;;;;1.10;0.50;;;;;;;7.84;55.47;99253.19;9948698;29;20094;-77
2022/01/23 12:41:32;;;;;;;2.38;0.50;;;;;;;7.64;55.64;99246.31;9951510;29;20068;-76
2022/01/23 12:46:57;;;;;;;1.70;0.55;;;;;;;7.52;56.26;99247.06;9951246;29;20061;-76
2022/01/23 12:52:21;;;;;;;1.17;0.60;;;;;;;7.47;55.98;99246.66;9963449;29;20053;-76
2022/01/23 12:57:43;;;;;;;1.57;0.50;;;;;;;7.44;55.94;99250.53;9962679;29;20046;-76
2022/01/23 13:03:04;;;;;;;2.85;0.60;;;;;;;7.40;55.80;99227.88;9975491;29;20539;-76
2022/01/23 13:08:29;;;;;;;0.77;0.40;;;;;;;7.39;56.06;99231.94;9962379;29;20065;-77
2022/01/23 13:13:59;;;;;;;0.70;0.50;;;;;;;7.35;55.98;99236.34;9950744;29;20050;-77
2022/01/23 13:31:09;;;;;;;0.40;0.30;;;;;;;7.22;55.72;99262.09;9964099;29;20050;-78
2022/01/23 13:36:30;;;;;;;0.90;0.40;;;;;;;7.16;56.10;99247.59;9951231;29;20107;-78
2022/01/23 13:54:18;;;;;;;5.70;2.58;;;;;;;6.91;56.92;99244.28;9978477;29;20383;-75
2022/01/23 14:00:00;;;;;;;3.53;2.13;;;;;;;6.78;56.64;99242.25;9986869;29;20054;-76
2022/01/23 14:05:27;;;;;;;4.60;2.35;;;;;;;6.71;57.13;99253.25;9976293;29;20409;-78
2022/01/23 14:10:51;;;;;;;5.85;2.70;;;;;;;6.69;57.47;99239.16;9961623;29;20093;-79
2022/01/23 14:16:14;;;;;;;4.78;2.30;;;;;;;6.74;57.41;99243.84;9973148;29;20517;-78
2022/01/23 14:21:42;;;;;;;4.05;2.20;;;;;;;6.69;57.74;99244.69;9972891;29;20427;-77
2022/01/23 14:27:10;;;;;;;3.10;1.77;;;;;;;6.65;57.41;99258.13;9947530;29;20050;-77
2022/01/23 14:32:44;;;;;;;2.00;1.23;;;;;;;6.58;57.64;99263.06;9947339;29;20383;-77
2022/01/23 14:38:12;;;;;;;2.08;1.15;;;;;;;6.58;57.49;99276.19;9949131;29;20046;-78
2022/01/23 14:43:42;;;;;;;2.13;1.10;;;;;;;6.53;57.55;99274.22;9946586;29;20053;-77
2022/01/23 14:49:10;;;;;;;2.60;1.38;;;;;;;6.49;57.74;99271.78;9950437;29;20057;-77
2022/01/23 14:54:32;;;;;;;1.58;1.00;;;;;;;6.45;57.67;99271.34;9947093;29;20055;-80
2022/01/23 14:59:53;;;;;;;1.77;0.95;;;;;;;6.39;58.05;99275.50;9971326;29;20047;-77
2022/01/23 15:05:13;;;;;;;1.95;1.08;;;;;;;6.32;58.02;99269.28;9945778;29;20050;-77
2022/01/23 15:10:36;;;;;;;3.72;1.42;;;;;;;6.29;58.08;99270.34;9945520;29;20050;-78
2022/01/23 15:15:57;;;;;;;2.97;1.65;;;;;;;6.26;58.47;99267.88;9977431;29;20047;-79
2022/01/23 15:21:18;;;;;;;3.22;2.10;;;;;;;6.20;58.79;99264.44;9956619;29;20055;-78
2022/01/23 15:26:40;;;;;;;3.55;2.05;;;;;;;6.17;58.61;99268.25;9957821;29;20046;-77
2022/01/23 15:32:01;;;;;;;3.67;1.42;;;;;;;6.15;58.73;99277.13;9945493;29;20057;-77
2022/01/23 15:37:21;;;;;;;2.15;1.25;;;;;;;6.12;58.74;99282.97;9944867;29;20073;-78
2022/01/23 15:42:43;;;;;;;2.05;1.38;;;;;;;6.10;58.98;99293.84;9957346;29;20094;-77
2022/01/23 15:48:04;;;;;;;3.17;1.90;;;;;;;6.10;58.64;99296.63;9957851;29;20050;-78
2022/01/23 15:53:25;;;;;;;4.22;2.45;;;;;;;6.07;59.23;99292.13;9944719;29;20054;-78
2022/01/23 15:58:46;;;;;;;3.78;2.10;;;;;;;6.08;59.24;99285.28;9944749;29;20050;-79
2022/01/23 16:04:07;;;;;;;4.28;2.17;;;;;;;6.06;59.54;99299.69;9955537;29;20053;-78
2022/01/23 16:09:28;;;;;;;4.82;3.15;;;;;;;6.03;59.49;99309.81;9940380;29;20390;-79
2022/01/23 16:14:51;;;;;;;3.40;2.47;;;;;;;6.05;59.58;99314.06;9923221;29;20059;-76
2022/01/23 16:20:15;;;;;;;4.72;2.60;;;;;;;5.97;59.68;99316.69;9906587;29;20480;-76
2022/01/23 16:25:36;;;;;;;4.50;2.67;;;;;;;5.92;60.12;99321.06;9906547;29;20051;-76
2022/01/23 16:30:58;;;;;;;5.32;2.78;;;;;;;5.89;60.42;99319.31;9906301;29;20050;-76
2022/01/23 16:36:19;;;;;;;4.03;2.83;;;;;;;5.91;60.28;99322.34;9906067;29;20080;-78
2022/01/23 16:41:43;;;;;;;5.30;2.97;;;;;;;5.93;60.61;99305.94;9919586;29;20051;-78
2022/01/23 16:47:06;;;;;;;5.07;3.05;;;;;;;5.94;60.70;99312.22;9918527;29;20053;-78
2022/01/23 16:52:36;;;;;;;6.35;3.65;;;;;;;5.86;61.31;99320.34;9908320;29;20050;-78
2022/01/23 16:57:57;;;;;;;4.53;2.70;;;;;;;5.81;61.45;99326.00;9918160;29;20050;-80
2022/01/23 17:03:17;;;;;;;4.45;2.45;;;;;;;5.73;61.46;99332.13;9907313;29;20051;-81
2022/01/23 17:08:38;;;;;;;4.07;2.65;;;;;;;5.66;61.79;99320.88;9912185;29;20038;-82
2022/01/23 17:13:59;;;;;;;7.57;3.90;;;;;;;5.64;61.44;99320.66;9940125;29;20065;-81
2022/01/23 17:19:20;;;;;;;6.88;3.53;;;;;;;5.60;61.91;99312.66;9964471;29;20050;-82
2022/01/23 17:24:42;;;;;;;5.30;3.42;;;;;;;5.57;62.07;99329.56;10044848;24;20121;-81
2022/01/23 17:30:03;;;;;;;3.03;2.63;;;;;;;5.57;62.52;99313.69;10024073;29;20057;-82
2022/01/23 17:35:25;;;;;;;4.82;2.65;;;;;;;5.54;62.42;99314.00;10025095;29;20124;-79
2022/01/23 17:40:46;;;;;;;2.90;2.30;;;;;;;5.50;62.61;99316.28;9992673;29;20046;-78
2022/01/23 17:46:07;;;;;;;3.95;2.13;;;;;;;5.46;63.23;99322.13;10032311;29;20045;-81
2022/01/23 17:51:30;;;;;;;2.85;1.50;;;;;;;5.46;62.96;99333.97;10005688;29;20416;-81
2022/01/23 17:56:51;;;;;;;3.25;2.50;;;;;;;5.46;63.70;99335.97;10008529;29;20125;-80
2022/01/23 18:02:14;;;;;;;3.08;2.20;;;;;;;5.45;63.24;99334.50;10006059;29;20053;-82
2022/01/23 18:07:37;;;;;;;3.50;2.40;;;;;;;5.41;63.40;99337.56;10004113;29;20056;-81
2022/01/23 18:12:58;;;;;;;4.00;3.10;;;;;;;5.44;63.46;99338.53;9994986;29;20046;-80
2022/01/23 18:18:19;;;;;;;4.43;3.42;;;;;;;5.42;63.88;99344.59;9985225;29;20049;-79
2022/01/23 18:23:40;;;;;;;4.90;3.10;;;;;;;5.44;63.67;99347.59;9984772;29;20054;-79
2022/01/23 18:29:02;;;;;;;4.03;2.92;;;;;;;5.44;64.17;99342.03;10003188;29;20070;-81
2022/01/23 18:34:24;;;;;;;3.90;3.35;;;;;;;5.41;64.83;99348.63;10033903;29;20078;-82
2022/01/23 18:39:45;;;;;;;4.97;3.38;;;;;;;5.41;64.86;99356.94;10044385;29;20064;-81
2022/01/23 18:45:06;;;;;;;4.90;3.83;;;;;;;5.39;64.80;99356.69;10011463;29;20042;-82
2022/01/23 18:50:28;;;;;;;7.32;4.15;;;;;;;5.36;64.58;99349.44;10207905;24;20118;-78
2022/01/23 18:55:50;;;;;;;6.78;5.13;;;;;;;5.41;64.63;99356.94;9998515;29;20054;-78
2022/01/23 19:01:17;;;;;;;5.68;4.72;;;;;;;5.37;64.82;99356.47;9984910;29;20125;-80
2022/01/23 19:06:44;;;;;;;6.72;5.05;;;;;;;5.39;65.23;99356.69;10037826;29;20056;-81
2022/01/23 19:12:05;;;;;;;8.50;6.35;;;;;;;5.41;65.27;99362.47;10033859;29;20054;-78
2022/01/23 19:17:26;;;;;;;10.30;7.65;;;;;;;5.38;65.06;99368.28;10020974;29;20046;-78
2022/01/23 19:22:53;;;;;;;14.05;7.95;;;;;;;5.37;65.23;99361.25;10023112;29;20053;-78
2022/01/23 19:28:15;;;;;;;10.98;7.88;;;;;;;5.36;65.83;99360.50;10020545;29;20049;-78
2022/01/23 19:33:36;;;;;;;13.32;9.20;;;;;;;5.35;65.54;99363.81;10020478;29;20053;-78
2022/01/23 19:38:57;;;;;;;15.40;10.07;;;;;;;5.32;65.57;99360.06;10045544;29;20041;-77
2022/01/23 19:44:57;;;;;;;13.52;9.68;;;;;;;5.33;65.66;99367.09;10006539;29;20049;-79
2022/01/23 19:50:07;;;;;;;13.32;9.38;;;;;;;5.31;66.11;99361.34;10039611;29;20429;-78
2022/01/23 19:55:28;;;;;;;13.05;8.98;;;;;;;5.33;65.94;99358.78;10045172;29;20077;-78
2022/01/23 20:00:51;;;;;;;12.25;9.52;;;;;;;5.30;66.03;99357.03;10019366;29;20049;-78
2022/01/23 20:06:16;;;;;;;12.13;8.13;;;;;;;5.32;66.48;99353.78;10045116;29;20049;-78
2022/01/23 20:17:03;;;;;;;13.85;8.80;;;;;;;5.31;66.31;99368.91;10032554;29;19924;-77
2022/01/23 20:22:27;;;;;;;13.10;8.15;;;;;;;5.32;66.27;99365.59;10031886;29;20055;-78
2022/01/23 20:27:48;;;;;;;12.37;8.53;;;;;;;5.29;66.25;99365.88;10007113;29;20041;-78
2022/01/23 20:33:09;;;;;;;12.00;8.05;;;;;;;5.25;66.49;99359.88;10019235;29;20061;-78
2022/01/23 20:38:31;;;;;;;11.65;8.50;;;;;;;5.24;66.75;99375.75;10018632;29;20050;-78
2022/01/23 20:43:52;;;;;;;13.77;8.32;;;;;;;5.24;66.81;99372.25;10031716;29;20045;-79
2022/01/23 20:49:15;;;;;;;12.93;8.25;;;;;;;5.21;66.93;99379.56;10018878;29;20053;-78
2022/01/23 20:54:36;;;;;;;12.02;8.32;;;;;;;5.21;66.69;99365.72;10019878;29;20049;-79
2022/01/23 20:59:58;;;;;;;13.68;8.88;;;;;;;5.19;66.83;99362.72;10026080;29;20073;-78
2022/01/23 21:05:19;;;;;;;13.52;8.43;;;;;;;5.14;67.18;99360.75;10025855;29;20056;-79
2022/01/23 21:10:40;;;;;;;16.02;9.40;;;;;;;5.14;67.40;99355.22;10025416;29;20058;-79
2022/01/23 21:43:30;;;;;;;13.98;8.40;;;;;;;5.15;67.35;99401.75;10051602;29;20052;-78
2022/01/23 21:48:51;;;;;;;12.35;8.35;;;;;;;5.17;67.67;99399.22;10036503;29;20080;-78
2022/01/23 21:54:13;;;;;;;12.60;8.73;;;;;;;5.19;67.55;99390.41;10034797;29;20057;-78
2022/01/23 21:59:34;;;;;;;14.27;9.55;;;;;;;5.15;67.57;99401.00;10034771;29;20046;-78
2022/01/23 22:04:55;;;;;;;13.45;9.02;;;;;;;5.16;67.19;99402.50;10023854;29;20045;-78
2022/01/23 22:21:25;;;;;;;12.40;8.18;;;;;;;5.26;67.58;99411.97;10037221;29;20046;-78
2022/01/23 22:26:46;;;;;;;13.90;7.45;;;;;;;5.29;67.22;99412.94;10024055;29;20544;-78
2022/01/23 22:32:09;;;;;;;13.10;7.70;;;;;;;5.31;67.50;99413.22;10023121;29;20548;-78
2022/01/23 22:37:31;;;;;;;10.02;6.95;;;;;;;5.32;67.63;99409.91;10048239;29;20069;-78
2022/01/23 22:42:52;;;;;;;11.00;7.10;;;;;;;5.31;67.59;99411.19;10022971;29;20105;-78
2022/01/23 22:48:14;;;;;;;11.38;6.93;;;;;;;5.31;67.71;99413.94;10022681;29;20175;-78
2022/01/23 22:53:35;;;;;;;12.70;7.60;;;;;;;5.32;67.30;99421.00;10022478;29;20065;-78
2022/01/23 22:58:56;;;;;;;9.45;6.85;;;;;;;5.33;67.45;99416.19;10022175;29;20045;-78
2022/01/23 23:04:17;;;;;;;11.25;6.65;;;;;;;5.30;67.46;99417.22;10047152;29;20049;-78
2022/01/23 23:09:38;;;;;;;11.32;6.88;;;;;;;5.23;68.00;99413.03;10021702;29;20130;-77
2022/01/23 23:14:59;;;;;;;11.95;6.57;;;;;;;5.20;67.99;99416.81;10034524;29;20049;-78
2022/01/23 23:20:26;;;;;;;8.13;5.65;;;;;;;5.25;68.13;99418.78;10021364;29;20041;-78
2022/01/23 23:25:47;;;;;;;10.88;6.28;;;;;;;5.24;67.57;99422.81;10035544;29;20045;-78
2022/01/23 23:31:08;;;;;;;10.35;6.10;;;;;;;5.27;67.59;99424.53;10020958;29;20113;-78
2022/01/23 23:36:31;;;;;;;10.23;6.32;;;;;;;5.23;67.78;99423.34;10020924;29;20132;-78
2022/01/23 23:41:56;;;;;;;10.05;6.15;;;;;;;5.22;68.03;99425.38;10033443;29;20061;-78
2022/01/23 23:47:17;;;;;;;;;;;;;;;5.23;68.15;99429.63;10034605;29;20056;-78
2022/01/23 23:52:47;;;;;;;8.80;4.90;;;;;;;5.22;67.75;99419.81;10045685;29;19924;-78
2022/01/23 23:58:08;;;;;;;9.20;5.13;;;;;;;5.24;67.88;99424.84;10022483;29;20056;-78
